createdAt,value
2019-01-18T00:00:00.709Z,81.50
2019-01-18T00:02:30.699Z,81.60
2019-01-18T00:04:59.164Z,81.20
2019-01-18T00:07:27.585Z,80.40
2019-01-18T00:09:55.972Z,80.30
2019-01-18T00:12:24.347Z,80.20
2019-01-18T00:14:52.730Z,80.60
2019-01-18T00:17:21.135Z,80.40
2019-01-18T00:19:49.582Z,80.30
2019-01-18T00:22:17.946Z,79.90
2019-01-18T00:24:46.347Z,80.30
2019-01-18T00:27:14.817Z,80.30
2019-01-18T00:29:43.169Z,80.50
2019-01-18T00:32:11.555Z,81.40
2019-01-18T00:34:39.912Z,80.70
2019-01-18T00:37:08.298Z,80.70
2019-01-18T00:39:36.649Z,80.50
2019-01-18T00:42:05.036Z,80.30
2019-01-18T00:44:33.399Z,80.60
2019-01-18T00:47:01.806Z,80.90
2019-01-18T00:49:30.161Z,81.00
2019-01-18T00:51:58.466Z,81.40
2019-01-18T00:54:26.889Z,81.90
2019-01-18T00:56:55.332Z,82.50
2019-01-18T00:59:23.812Z,83.50
2019-01-18T01:01:52.205Z,84.70
2019-01-18T01:04:20.542Z,87.00
2019-01-18T01:06:48.924Z,90.30
2019-01-18T01:09:17.323Z,91.40
2019-01-18T01:11:45.656Z,91.80
2019-01-18T01:14:14.027Z,92.20
2019-01-18T01:16:42.390Z,92.20
2019-01-18T01:19:10.803Z,91.90
2019-01-18T01:21:39.244Z,91.80
2019-01-18T01:24:07.621Z,91.80
2019-01-18T01:26:35.942Z,91.20
2019-01-18T01:29:04.230Z,91.20
2019-01-18T01:31:32.629Z,90.70
2019-01-18T01:34:01.078Z,90.00
2019-01-18T01:36:29.433Z,90.00
2019-01-18T01:38:57.869Z,89.20
2019-01-18T01:41:26.220Z,87.40
2019-01-18T01:43:54.529Z,87.50
2019-01-18T01:46:22.905Z,86.30
2019-01-18T01:48:51.346Z,87.10
2019-01-18T01:51:19.713Z,86.70
2019-01-18T01:53:48.077Z,85.90
2019-01-18T01:56:16.461Z,85.90
2019-01-18T01:58:44.866Z,85.40
2019-01-18T02:01:13.279Z,85.50
2019-01-18T02:03:41.681Z,85.70
2019-01-18T02:06:10.089Z,85.10
2019-01-18T02:08:38.389Z,85.90
2019-01-18T02:11:06.678Z,85.50
2019-01-18T02:13:35.094Z,85.10
2019-01-18T02:16:03.462Z,85.40
2019-01-18T02:18:31.811Z,85.20
2019-01-18T02:21:00.169Z,84.90
2019-01-18T02:23:28.540Z,84.80
2019-01-18T02:25:56.879Z,85.20
2019-01-18T02:28:25.273Z,84.90
2019-01-18T02:30:53.637Z,84.40
2019-01-18T02:33:22.030Z,85.10
2019-01-18T02:35:50.374Z,84.80
2019-01-18T02:38:18.759Z,84.40
2019-01-18T02:40:47.115Z,84.60
2019-01-18T02:43:15.492Z,84.80
2019-01-18T02:45:43.818Z,85.30
2019-01-18T02:48:12.205Z,85.40
2019-01-18T02:50:40.550Z,84.60
2019-01-18T02:53:08.922Z,85.10
2019-01-18T02:55:37.309Z,84.90
2019-01-18T02:58:05.788Z,85.10
2019-01-18T03:00:34.135Z,84.90
2019-01-18T03:03:02.521Z,84.00
2019-01-18T03:05:30.802Z,85.00
2019-01-18T03:07:59.198Z,85.10
2019-01-18T03:10:28.779Z,84.00
2019-01-18T03:12:57.202Z,83.70
2019-01-18T03:15:25.561Z,83.70
2019-01-18T03:17:53.937Z,83.70
2019-01-18T03:20:22.257Z,84.00
2019-01-18T03:22:50.530Z,82.80
2019-01-18T03:25:21.140Z,82.40
2019-01-18T03:27:49.594Z,81.50
2019-01-18T03:30:20.769Z,82.80
2019-01-18T03:32:48.730Z,83.00
2019-01-18T03:35:21.400Z,81.80
2019-01-18T03:37:49.831Z,81.10
2019-01-18T03:40:19.333Z,81.50
2019-01-18T03:42:48.126Z,82.00
2019-01-18T03:45:17.960Z,82.00
2019-01-18T03:47:46.387Z,82.70
2019-01-18T03:50:20.623Z,82.20
2019-01-18T03:52:49.066Z,82.60
2019-01-18T03:55:17.414Z,82.80
2019-01-18T03:57:45.953Z,81.90
2019-01-18T04:00:26.315Z,82.80
2019-01-18T04:02:52.114Z,82.10
2019-01-18T04:05:20.453Z,81.50
2019-01-18T04:07:48.892Z,81.00
2019-01-18T04:10:19.285Z,81.30
2019-01-18T04:12:47.669Z,81.40
2019-01-18T04:15:17.718Z,81.30
2019-01-18T04:17:46.023Z,80.80
2019-01-18T04:20:18.490Z,79.70
2019-01-18T04:22:46.874Z,79.20
2019-01-18T04:25:16.843Z,79.90
2019-01-18T04:27:45.284Z,80.60
2019-01-18T04:30:15.714Z,80.20
2019-01-18T04:32:44.131Z,79.40
2019-01-18T04:35:13.127Z,80.20
2019-01-18T04:37:41.544Z,80.50
2019-01-18T04:40:13.405Z,80.00
2019-01-18T04:42:41.758Z,80.40
2019-01-18T04:45:10.406Z,79.80
2019-01-18T04:47:38.780Z,79.30
2019-01-18T04:50:13.546Z,79.00
2019-01-18T04:52:41.845Z,79.00
2019-01-18T04:55:10.229Z,79.70
2019-01-18T04:57:38.582Z,79.80
2019-01-18T05:00:21.896Z,79.70
2019-01-18T05:02:50.186Z,79.50
2019-01-18T05:05:18.551Z,79.40
2019-01-18T05:07:46.915Z,79.60
2019-01-18T05:10:23.149Z,79.00
2019-01-18T05:12:51.555Z,78.70
2019-01-18T05:15:25.307Z,79.10
2019-01-18T05:17:53.657Z,79.00
2019-01-18T05:20:22.092Z,79.50
2019-01-18T05:22:50.443Z,79.20
2019-01-18T05:25:18.830Z,79.00
2019-01-18T05:27:47.186Z,78.90
2019-01-18T05:30:28.918Z,78.80
2019-01-18T05:32:57.268Z,79.10
2019-01-18T05:35:25.719Z,78.70
2019-01-18T05:37:54.076Z,78.40
2019-01-18T05:40:23.183Z,78.30
2019-01-18T05:42:51.609Z,78.60
2019-01-18T05:45:22.170Z,78.20
2019-01-18T05:47:50.577Z,78.20
2019-01-18T05:50:21.516Z,78.50
2019-01-18T05:52:49.920Z,78.20
2019-01-18T05:55:18.349Z,77.80
2019-01-18T05:57:46.803Z,77.90
2019-01-18T06:00:21.989Z,78.10
2019-01-18T06:02:50.386Z,78.30
2019-01-18T06:05:19.557Z,77.60
2019-01-18T06:07:49.934Z,78.20
2019-01-18T06:10:18.102Z,78.10
2019-01-18T06:12:46.570Z,78.30
2019-01-18T06:15:15.073Z,78.50
2019-01-18T06:17:43.459Z,78.30
2019-01-18T06:20:14.662Z,78.60
2019-01-18T06:22:43.197Z,77.80
2019-01-18T06:25:12.507Z,78.10
2019-01-18T06:27:40.866Z,78.60
2019-01-18T06:30:17.561Z,78.20
2019-01-18T06:32:46.119Z,78.40
2019-01-18T06:35:14.838Z,79.10
2019-01-18T06:37:43.315Z,79.00
2019-01-18T06:40:17.220Z,79.10
2019-01-18T06:42:45.612Z,78.50
2019-01-18T06:45:16.469Z,78.60
2019-01-18T06:47:44.849Z,78.50
2019-01-18T06:50:15.392Z,78.00
2019-01-18T06:52:43.784Z,77.50
2019-01-18T06:55:12.361Z,77.80
2019-01-18T06:57:40.653Z,77.90
2019-01-18T07:00:23.863Z,77.20
2019-01-18T07:02:52.369Z,77.50
2019-01-18T07:05:20.775Z,78.10
2019-01-18T07:07:49.205Z,76.50
2019-01-18T07:10:20.990Z,76.70
2019-01-18T07:12:49.440Z,76.90
2019-01-18T07:15:17.837Z,77.10
2019-01-18T07:17:46.159Z,76.80
2019-01-18T07:20:16.437Z,75.40
2019-01-18T07:22:44.847Z,75.00
2019-01-18T07:25:15.997Z,74.90
2019-01-18T07:27:44.370Z,75.80
2019-01-18T07:30:24.383Z,75.30
2019-01-18T07:32:52.752Z,76.00
2019-01-18T07:35:21.254Z,74.80
2019-01-18T07:37:49.628Z,75.30
2019-01-18T07:40:17.928Z,74.60
2019-01-18T07:42:46.290Z,75.10
2019-01-18T07:45:20.408Z,75.40
2019-01-18T07:47:48.791Z,75.40
2019-01-18T07:50:20.123Z,76.30
2019-01-18T07:52:47.184Z,76.30
2019-01-18T07:55:15.537Z,76.10
2019-01-18T07:57:43.949Z,76.30
2019-01-18T08:00:23.345Z,76.30
2019-01-18T08:02:51.727Z,75.50
2019-01-18T08:05:20.914Z,75.20
2019-01-18T08:07:49.213Z,75.20
2019-01-18T08:10:19.565Z,74.60
2019-01-18T08:12:47.935Z,74.40
2019-01-18T08:15:18.123Z,74.50
2019-01-18T08:17:46.517Z,73.30
2019-01-18T08:20:17.005Z,72.50
2019-01-18T08:22:45.386Z,73.50
2019-01-18T08:25:15.078Z,73.40
2019-01-18T08:27:43.457Z,75.60
2019-01-18T08:30:14.435Z,70.70
2019-01-18T08:32:42.865Z,70.50
2019-01-18T08:35:13.459Z,71.90
2019-01-18T08:37:41.896Z,73.20
2019-01-18T08:40:18.805Z,73.30
2019-01-18T08:42:47.198Z,74.80
2019-01-18T08:45:21.969Z,74.80
2019-01-18T08:47:50.384Z,75.20
2019-01-18T08:50:19.896Z,74.30
2019-01-18T08:52:48.348Z,74.30
2019-01-18T08:55:16.723Z,73.20
2019-01-18T08:57:45.067Z,73.90
2019-01-18T09:00:19.130Z,73.90
2019-01-18T09:02:47.558Z,73.40
2019-01-18T09:05:18.671Z,73.60
2019-01-18T09:07:47.042Z,74.30
2019-01-18T09:10:23.211Z,75.10
2019-01-18T09:12:51.730Z,75.50
2019-01-18T09:15:20.091Z,75.40
2019-01-18T09:17:48.441Z,75.90
2019-01-18T09:20:21.207Z,76.20
2019-01-18T09:22:49.625Z,74.40
2019-01-18T09:25:18.022Z,75.00
2019-01-18T09:27:46.521Z,74.30
2019-01-18T09:30:19.703Z,74.70
2019-01-18T09:32:48.416Z,75.40
2019-01-18T09:35:21.448Z,76.90
2019-01-18T09:37:49.901Z,76.70
2019-01-18T09:40:23.611Z,76.80
2019-01-18T09:42:52.086Z,76.90
2019-01-18T09:45:20.513Z,76.90
2019-01-18T09:47:48.866Z,76.80
2019-01-18T09:50:19.346Z,76.40
2019-01-18T09:52:47.943Z,76.50
2019-01-18T09:55:16.397Z,75.90
2019-01-18T09:57:44.776Z,77.20
2019-01-18T10:00:22.081Z,78.50
2019-01-18T10:02:50.458Z,80.20
2019-01-18T10:05:19.262Z,79.90
2019-01-18T10:07:47.622Z,79.50
2019-01-18T10:10:17.829Z,80.10
2019-01-18T10:12:46.554Z,80.00
2019-01-18T10:15:17.842Z,78.90
2019-01-18T10:17:46.230Z,77.50
2019-01-18T10:20:16.750Z,76.90
2019-01-18T10:22:46.152Z,76.70
2019-01-18T10:25:15.970Z,76.40
2019-01-18T10:27:44.454Z,75.20
2019-01-18T10:30:21.394Z,74.80
2019-01-18T10:32:49.834Z,74.30
2019-01-18T10:35:18.415Z,73.50
2019-01-18T10:37:46.816Z,73.10
2019-01-18T10:40:16.357Z,71.80
2019-01-18T10:42:45.395Z,69.10
2019-01-18T10:45:16.262Z,70.00
2019-01-18T10:47:44.988Z,69.60
2019-01-18T10:50:15.547Z,68.40
2019-01-18T10:52:43.924Z,68.10
2019-01-18T10:55:12.394Z,68.50
2019-01-18T10:57:40.841Z,66.90
2019-01-18T11:00:15.442Z,68.90
2019-01-18T11:02:43.846Z,67.70
2019-01-18T11:05:13.486Z,66.60
2019-01-18T11:07:41.851Z,67.90
2019-01-18T11:10:12.518Z,68.30
2019-01-18T11:12:40.939Z,67.50
2019-01-18T11:15:14.450Z,68.10
2019-01-18T11:17:42.744Z,69.30
2019-01-18T11:20:26.027Z,69.00
2019-01-18T11:22:55.813Z,68.50
2019-01-18T11:25:24.186Z,68.70
2019-01-18T11:27:52.683Z,68.70
2019-01-18T11:30:21.015Z,70.10
2019-01-18T11:32:49.394Z,70.60
2019-01-18T11:35:17.776Z,70.30
2019-01-18T11:37:46.307Z,71.70
2019-01-18T11:40:16.878Z,72.20
2019-01-18T11:42:45.332Z,71.90
2019-01-18T11:45:13.929Z,72.20
2019-01-18T11:47:42.305Z,71.20
2019-01-18T11:50:16.116Z,70.60
2019-01-18T11:52:44.488Z,69.90
2019-01-18T11:55:12.943Z,68.60
2019-01-18T11:57:41.476Z,67.60
2019-01-18T12:00:17.304Z,67.10
2019-01-18T12:02:45.947Z,68.70
2019-01-18T12:05:14.364Z,67.10
2019-01-18T12:07:42.766Z,66.50
2019-01-18T12:10:25.106Z,64.40
2019-01-18T12:12:53.514Z,63.30
2019-01-18T12:15:21.905Z,64.20
2019-01-18T12:17:50.319Z,63.80
2019-01-18T12:20:24.049Z,60.70
2019-01-18T12:22:52.527Z,63.20
2019-01-18T12:25:20.817Z,63.50
2019-01-18T12:27:49.211Z,64.50
2019-01-18T12:30:20.552Z,64.90
2019-01-18T12:32:48.957Z,65.30
2019-01-18T12:35:17.237Z,64.50
2019-01-18T12:37:45.688Z,66.20
2019-01-18T12:40:14.130Z,65.70
2019-01-18T12:42:42.498Z,63.40
2019-01-18T12:45:13.592Z,63.60
2019-01-18T12:47:42.040Z,63.40
2019-01-18T12:50:19.185Z,60.60
2019-01-18T12:52:47.653Z,62.50
2019-01-18T12:55:16.029Z,63.10
2019-01-18T12:57:44.427Z,62.00
2019-01-18T13:00:15.893Z,61.00
2019-01-18T13:02:44.330Z,61.50
2019-01-18T13:05:16.205Z,62.00
2019-01-18T13:07:46.401Z,63.70
2019-01-18T13:10:14.950Z,62.50
2019-01-18T13:12:43.424Z,63.80
2019-01-18T13:15:15.563Z,63.10
2019-01-18T13:17:44.010Z,63.60
2019-01-18T13:20:14.672Z,61.80
2019-01-18T13:22:43.058Z,60.30
2019-01-18T13:25:16.053Z,61.90
2019-01-18T13:27:44.488Z,61.00
2019-01-18T13:30:17.868Z,61.80
2019-01-18T13:32:46.254Z,61.50
2019-01-18T13:35:14.612Z,64.80
2019-01-18T13:37:43.088Z,67.10
2019-01-18T13:40:17.052Z,68.30
2019-01-18T13:42:45.495Z,68.80
2019-01-18T13:45:14.127Z,68.80
2019-01-18T13:47:43.542Z,69.00
2019-01-18T13:50:16.574Z,69.30
2019-01-18T13:52:44.928Z,69.30
2019-01-18T13:55:22.276Z,69.70
2019-01-18T13:57:50.741Z,69.50
2019-01-18T14:00:19.098Z,70.30
2019-01-18T14:02:48.483Z,69.90
2019-01-18T14:05:17.079Z,70.90
2019-01-18T14:07:45.501Z,70.60
2019-01-18T14:10:17.166Z,70.30
2019-01-18T14:12:45.544Z,70.20
2019-01-18T14:15:17.105Z,70.50
2019-01-18T14:17:45.478Z,69.70
2019-01-18T14:20:15.570Z,69.60
2019-01-18T14:22:43.980Z,71.20
2019-01-18T14:25:12.325Z,69.90
2019-01-18T14:27:40.850Z,70.80
2019-01-18T14:30:12.462Z,71.10
2019-01-18T14:32:40.951Z,69.90
2019-01-18T14:35:09.293Z,70.60
2019-01-18T14:37:37.865Z,68.80
2019-01-18T14:40:11.963Z,69.50
2019-01-18T14:42:40.358Z,68.70
2019-01-18T14:45:14.625Z,69.70
2019-01-18T14:47:42.961Z,70.30
2019-01-18T14:50:19.153Z,69.50
2019-01-18T14:52:47.633Z,69.40
2019-01-18T14:55:16.029Z,70.60
2019-01-18T14:57:44.443Z,71.00
2019-01-18T15:00:18.920Z,71.30
2019-01-18T15:02:47.437Z,70.90
2019-01-18T15:05:15.890Z,70.40
2019-01-18T15:07:44.337Z,70.70
2019-01-18T15:10:18.444Z,71.70
2019-01-18T15:12:48.154Z,72.40
2019-01-18T15:15:16.647Z,72.40
2019-01-18T15:17:46.762Z,71.70
2019-01-18T15:20:20.218Z,72.60
2019-01-18T15:22:48.622Z,72.40
2019-01-18T15:25:17.141Z,71.50
2019-01-18T15:27:45.635Z,72.20
2019-01-18T15:30:24.997Z,72.40
2019-01-18T15:32:53.516Z,71.00
2019-01-18T15:35:24.232Z,72.40
2019-01-18T15:37:52.687Z,71.10
2019-01-18T15:40:26.083Z,71.90
2019-01-18T15:42:55.736Z,72.70
2019-01-18T15:45:24.068Z,73.60
2019-01-18T15:47:52.470Z,72.40
2019-01-18T15:50:28.687Z,72.90
2019-01-18T15:52:57.068Z,72.90
2019-01-18T15:55:25.445Z,73.10
2019-01-18T15:57:53.767Z,73.30
2019-01-18T16:00:30.766Z,73.40
2019-01-18T16:02:59.410Z,73.20
2019-01-18T16:05:27.869Z,74.00
2019-01-18T16:07:56.228Z,73.10
2019-01-18T16:10:25.220Z,73.30
2019-01-18T16:12:53.818Z,73.20
2019-01-18T16:15:25.591Z,74.00
2019-01-18T16:17:53.987Z,74.30
2019-01-18T16:20:24.171Z,74.10
2019-01-18T16:22:52.717Z,74.70
2019-01-18T16:25:24.034Z,74.10
2019-01-18T16:27:52.409Z,73.30
2019-01-18T16:30:22.325Z,73.90
2019-01-18T16:32:50.726Z,74.10
2019-01-18T16:35:19.612Z,73.40
2019-01-18T16:37:48.330Z,73.60
2019-01-18T16:40:22.625Z,73.70
2019-01-18T16:43:00.307Z,73.50
2019-01-18T16:45:28.636Z,73.90
2019-01-18T16:47:57.093Z,74.10
2019-01-18T16:50:25.449Z,73.30
2019-01-18T16:52:53.884Z,73.80
2019-01-18T16:55:22.255Z,74.10
2019-01-18T16:57:50.709Z,73.90
2019-01-18T17:00:30.663Z,73.90
2019-01-18T17:02:59.035Z,73.70
2019-01-18T17:05:27.464Z,73.30
2019-01-18T17:07:55.911Z,73.30
2019-01-18T17:10:24.274Z,73.40
2019-01-18T17:12:52.669Z,73.00
2019-01-18T17:15:21.006Z,73.20
2019-01-18T17:17:49.409Z,72.80
2019-01-18T17:20:26.589Z,73.20
2019-01-18T17:22:55.080Z,73.00
2019-01-18T17:25:23.541Z,73.20
2019-01-18T17:27:51.906Z,73.00
2019-01-18T17:30:21.420Z,73.90
2019-01-18T17:32:51.329Z,74.20
2019-01-18T17:35:31.296Z,74.20
2019-01-18T17:38:14.565Z,74.60
2019-01-18T17:40:57.581Z,74.50
2019-01-18T17:43:52.850Z,74.70
2019-01-18T17:46:33.199Z,75.20
2019-01-18T17:49:10.366Z,74.70
2019-01-18T17:52:02.797Z,75.10
2019-01-18T17:54:36.830Z,75.10
2019-01-18T17:57:24.587Z,75.20
2019-01-18T18:00:01.878Z,74.50
2019-01-18T18:02:39.426Z,74.80
2019-01-18T18:05:16.443Z,75.10
2019-01-18T18:08:11.575Z,75.80
2019-01-18T18:11:02.761Z,75.80
2019-01-18T18:13:57.558Z,75.90
2019-01-18T18:16:44.093Z,76.60
2019-01-18T18:19:35.208Z,77.10
2019-01-18T18:22:09.927Z,77.30
2019-01-18T18:24:41.829Z,77.70
2019-01-18T18:27:13.459Z,77.90
2019-01-18T18:29:53.206Z,78.00
2019-01-18T18:32:56.054Z,77.90
2019-01-18T18:35:33.282Z,78.30
2019-01-18T18:38:25.626Z,78.40
2019-01-18T18:41:13.522Z,78.20
2019-01-18T18:44:05.422Z,77.80
2019-01-18T18:46:48.656Z,78.10
2019-01-18T18:49:31.959Z,77.90
2019-01-18T18:52:18.678Z,78.40
2019-01-18T18:54:50.313Z,79.20
2019-01-18T18:57:33.902Z,80.40
2019-01-18T19:00:05.616Z,81.20
2019-01-18T19:02:55.460Z,81.20
2019-01-18T19:05:43.574Z,81.50
2019-01-18T19:08:15.450Z,81.50
2019-01-18T19:10:47.128Z,81.50
2019-01-18T19:13:37.846Z,81.90
2019-01-18T19:16:18.555Z,82.10
2019-01-18T19:18:56.078Z,82.40
2019-01-18T19:21:44.134Z,82.60
2019-01-18T19:24:44.017Z,82.50
2019-01-18T19:27:24.682Z,82.10
2019-01-18T19:30:14.202Z,82.60
2019-01-18T19:32:57.807Z,82.40
2019-01-18T19:35:44.074Z,82.10
2019-01-18T19:38:42.771Z,81.70
2019-01-18T19:41:30.770Z,81.90
2019-01-18T19:44:11.351Z,81.60
2019-01-18T19:47:05.127Z,81.60
2019-01-18T19:49:54.697Z,81.70
2019-01-18T19:52:42.791Z,81.10
2019-01-18T19:55:20.134Z,80.80
2019-01-18T19:57:54.762Z,80.00
2019-01-18T20:00:41.124Z,80.00
2019-01-18T20:03:21.931Z,80.10
2019-01-18T20:05:56.330Z,80.40
2019-01-18T20:08:33.959Z,79.20
2019-01-18T20:11:25.904Z,78.90
2019-01-18T20:14:14.078Z,79.40
2019-01-18T20:17:03.555Z,79.90
2019-01-18T20:19:50.219Z,80.80
2019-01-18T20:22:36.505Z,81.00
2019-01-18T20:25:17.192Z,81.00
2019-01-18T20:28:06.695Z,81.40
2019-01-18T20:31:05.419Z,80.90
2019-01-18T20:33:51.800Z,80.70
2019-01-18T20:36:32.279Z,80.20
2019-01-18T20:39:15.824Z,80.20
2019-01-18T20:42:06.960Z,80.40
2019-01-18T20:44:41.582Z,80.10
2019-01-18T20:47:36.986Z,80.60
2019-01-18T20:50:30.833Z,80.80
2019-01-18T20:53:11.586Z,80.60
2019-01-18T20:55:58.033Z,80.80
2019-01-18T20:58:38.877Z,81.00
2019-01-18T21:01:28.101Z,81.50
2019-01-18T21:04:25.250Z,81.30
2019-01-18T21:07:07.581Z,81.50
2019-01-18T21:09:41.875Z,81.40
2019-01-18T21:12:31.338Z,82.10
2019-01-18T21:15:02.999Z,81.80
2019-01-18T21:17:43.652Z,81.70
2019-01-18T21:20:18.060Z,82.40
2019-01-18T21:22:52.294Z,82.70
2019-01-18T21:25:35.707Z,83.30
2019-01-18T21:28:31.221Z,83.80
2019-01-18T21:31:14.650Z,84.00
2019-01-18T21:34:05.599Z,84.50
2019-01-18T21:36:49.154Z,84.30
2019-01-18T21:39:20.876Z,85.00
2019-01-18T21:41:55.114Z,85.40
2019-01-18T21:44:43.168Z,85.30
2019-01-18T21:47:17.853Z,85.30
2019-01-18T21:50:10.263Z,85.40
2019-01-18T21:52:51.011Z,85.40
2019-01-18T21:55:25.471Z,85.80
2019-01-18T21:58:08.972Z,85.70
2019-01-18T22:00:40.779Z,85.50
2019-01-18T22:03:18.047Z,85.50
2019-01-18T22:05:52.482Z,85.80
2019-01-18T22:08:24.151Z,85.80
2019-01-18T22:10:58.403Z,85.70
2019-01-18T22:13:32.550Z,86.20
2019-01-18T22:16:20.758Z,86.40
2019-01-18T22:19:10.332Z,86.30
2019-01-18T22:21:53.065Z,86.40
2019-01-18T22:24:57.730Z,86.70
2019-01-18T22:27:29.353Z,86.50
2019-01-18T22:30:01.019Z,86.90
2019-01-18T22:32:38.627Z,86.60
2019-01-18T22:35:28.057Z,87.20
2019-01-18T22:38:16.032Z,87.30
2019-01-18T22:41:12.994Z,87.30
2019-01-18T22:43:44.631Z,87.00
2019-01-18T22:46:25.369Z,87.30
2019-01-18T22:49:23.721Z,87.70
2019-01-18T22:51:55.361Z,87.40
2019-01-18T22:54:43.815Z,87.20
2019-01-18T22:57:35.045Z,87.80
2019-01-18T23:00:33.732Z,87.30
2019-01-18T23:03:14.325Z,87.70
2019-01-18T23:06:05.109Z,87.40
2019-01-18T23:09:11.168Z,87.20
2019-01-18T23:11:54.997Z,87.50
2019-01-18T23:14:26.637Z,86.90
2019-01-18T23:17:13.033Z,87.30
2019-01-18T23:19:56.318Z,87.10
2019-01-18T23:22:45.666Z,87.00
2019-01-18T23:25:17.516Z,87.20
2019-01-18T23:28:00.809Z,87.60
2019-01-18T23:30:38.479Z,87.70
2019-01-18T23:33:32.672Z,87.80
2019-01-18T23:36:10.086Z,87.90
2019-01-18T23:38:44.710Z,87.80
2019-01-18T23:41:34.417Z,87.90
2019-01-18T23:44:14.688Z,87.80
2019-01-18T23:47:10.796Z,88.00
2019-01-18T23:49:52.695Z,88.20
2019-01-18T23:52:36.452Z,88.40
2019-01-18T23:55:20.040Z,88.70
2019-01-18T23:57:59.621Z,88.30
